Sweeney Granite Mountains, California Weather observations

Data are for 10 minute period ending at time listed.
 Day   Time   Solar   Ave.   Ave.  Ave.  Vector  Max.   Baro.   Total    
  of    of     Rad.   Air    Rel.  Wind   Wind   Wind  Press.  Precip.   
Year   Day            Temp.  Hum.  Speed  Dir.   Gust                    
2015   (PST)  Kw/m2    F      %     mph   deg.    mph    mb.     in.     
-------------------------------------------------------------------------
 242    6:10   0.10   79.7    22    5.7   290     9.6   870.4    0.00 
 242    6:20   0.13   80.3    22    5.7   298     8.3   870.5    0.00 
 242    6:30   0.17   81.2    21    4.0   261     7.1   870.5    0.00 
 242    6:40   0.21   82.2    20    2.1   203     4.2   870.6    0.00 
 242    6:50   0.24   82.7    20    3.2   262     5.3   870.7    0.00 
 242    7:00   0.28   83.2    20    2.5   220     4.3   870.8    0.00 
 242    7:10   0.32   83.2    20    2.4   335     5.3   870.8    0.00 
 242    7:20   0.36   84.6    19    2.6     3     9.7   870.8    0.00 
 242    7:30   0.40   83.4    20    6.4   120    10.6   870.6    0.00 
 242    7:40   0.43   83.4    20    6.2   119    11.0   870.6    0.00 
 242    7:50   0.47   83.8    19    4.1   131     8.1   870.5    0.00 
 242    8:00   0.50   84.3    19    5.0   113     8.9   870.5    0.00 
 242    8:10   0.54   84.7    18    5.2   141    12.1   870.5    0.00 
 242    8:20   0.57   85.3    18    2.6   195     7.0   870.5    0.00 
 242    8:30   0.60   85.8    17    3.1   174     8.4   870.6    0.00 
 242    8:40   0.63   86.1    17    3.3   207     8.7   870.7    0.00 
 242    8:50   0.66   85.6    17    2.3   169     7.6   870.6    0.00 
 242    9:00   0.69   86.5    17    5.1   231    11.0   870.6    0.00 
 242    9:10   0.72   86.0    17    5.5   251    10.0   870.7    0.00 
 242    9:20   0.75   87.1    16    4.7   235     9.4   870.8    0.00 
 242    9:30   0.77   86.7    16    5.5   240    12.1   870.9    0.00 
 242    9:40   0.80   86.1    16    6.4   250    11.0   870.9    0.00 
 242    9:50   0.81   86.2    16    6.0   227    12.9   870.9    0.00 
 242   10:00   0.84   86.2    16    4.5   259    10.7   870.9    0.00 
 242   10:10   0.85   87.7    16    3.6   161    10.7   870.9    0.00 
 242   10:20   0.83   86.4    17    5.3   139    12.0   870.9    0.00 
 242   10:30   0.88   87.0    16    4.2   179    11.3   870.7    0.00 
 242   10:40   0.90   87.2    16    3.6   207     8.4   870.6    0.00 
 242   10:50   0.91   86.8    17    6.5   118    12.1   870.5    0.00 
 242   11:00   0.92   87.0    17    5.3   246    13.1   870.5    0.00 
 242   11:10   0.93   87.3    17    7.2   220    18.2   870.4    0.00 
 242   11:20   0.94   87.8    16    5.4   224    13.7   870.4    0.00 
 242   11:30   0.95   87.8    16    4.7   192    13.8   870.3    0.00 
 242   11:40   0.95   87.0    16    6.8   221    15.2   870.2    0.00 
 242   11:50   0.95   88.3    15    4.2   201    11.5   870.0    0.00 
 242   12:00   0.95   87.9    15    9.3   224    18.2   869.9    0.00 
 242   12:10   0.96   89.1    14    7.2   264    18.6   869.8    0.00 
 242   12:20   0.95   88.6    15    8.3   240    17.8   869.8    0.00 
 242   12:30   0.88   88.3    15    7.8   212    18.2   869.7    0.00 
 242   12:40   0.90   88.6    14    7.5   236    19.1   869.6    0.00 
 242   12:50   0.92   89.7    14    8.1   270    20.5   869.5    0.00 
 242   13:00   0.91   89.8    14    5.8   271    14.2   869.4    0.00 
 242   13:10   0.85   88.7    14    7.8   227    18.8   869.3    0.00 
 242   13:20   0.81   89.3    14    7.0   239    17.6   869.2    0.00 
 242   13:30   0.77   88.9    14   10.0   234    20.4   868.9    0.00 
 242   13:40   0.81   88.5    14    8.1   237    15.9   868.8    0.00 
 242   13:50   0.84   89.6    14    7.3   231    20.5   868.6    0.00 
 242   14:00   0.85   90.0    13    7.6   238    15.3   868.5    0.00 
 242   14:10   0.75   89.8    14    9.5   279    24.8   868.3    0.00 
 242   14:20   0.59   89.8    14    4.9   248    11.0   868.2    0.00 
 242   14:30   0.61   90.1    14    5.7   256    15.6   868.1    0.00 
 242   14:40   0.57   89.7    14    7.8   271    13.5   868.0    0.00 
 242   14:50   0.53   90.1    13    8.9   284    17.2   867.9    0.00 
 242   15:00   0.56   90.7    13    6.6   245    13.7   867.9    0.00 
 242   15:10   0.42   90.5    13    5.1   280    11.1   867.7    0.00 
 242   15:20   0.43   89.8    14    5.9   245    10.3   867.7    0.00 
 242   15:30   0.59   90.6    13    7.4   276    12.8   867.5    0.00 
 242   15:40   0.51   90.6    14    4.5   200     9.5   867.4    0.00 
 242   15:50   0.19   89.1    13    5.1   229    14.6   867.2    0.00 
 242   16:00   0.12   88.6    13    5.0   259    10.2   867.2    0.00 
 242   16:10   0.43   90.0    12    5.6   255    12.9   867.1    0.00 
 242   16:20   0.43   90.4    13    7.1   220    14.0   867.1    0.00 
 242   16:30   0.35   89.7    13    5.8   256    16.8   867.0    0.00 
 242   16:40   0.34   90.2    12    7.4   279    19.9   866.9    0.00 
 242   16:50   0.23   89.8    12    4.6   266    11.2   866.8    0.00 
 242   17:00   0.25   90.2    12    5.4   245    11.1   866.8    0.00 
 242   17:10   0.20   90.2    12    3.5   222     8.8   866.8    0.00 
 242   17:20   0.07   89.4    12    4.3   246    11.0   866.7    0.00 
 242   17:30   0.03   87.0    13    5.4   292     9.4   866.7    0.00 
 242   17:40   0.01   86.4    13    3.7   268     8.0   866.7    0.00 
 242   17:50   0.01   86.3    13    2.6   286     5.3   866.7    0.00 
 242   18:00   0.01   85.8    14    3.2   287     6.6   866.6    0.00 
 242   18:10   0.00   85.4    14    2.3   301     4.7   866.6    0.00 
 242   18:20   0.00   84.2    14    3.3   279     5.5   866.7    0.00 
 242   18:30   0.00   83.5    16    5.5   298    10.5   866.9    0.00 
 242   18:40   0.00   83.7    18    7.9   304    11.2   866.9    0.00 
 242   18:50   0.00   83.9    18    8.5   304    12.6   867.0    0.00 
 242   19:00   0.00   84.1    18   11.1   311    16.1   867.1    0.00 
 242   19:10   0.00   83.9    19    9.4   305    15.9   867.2    0.00 
 242   19:20   0.00   83.8    20   10.2   313    15.3   867.4    0.00 
 242   19:30   0.00   83.6    21   10.3   314    19.4   867.4    0.00 
 242   19:40   0.00   82.4    23   14.5   306    22.2   867.6    0.00 
 242   19:50   0.00   81.9    24   16.1   308    25.1   867.7    0.00 
 242   20:00   0.00   81.4    25   14.8   313    21.5   867.8    0.00 
 242   20:10   0.00   81.1    25   16.9   315    23.7   867.8    0.00 
 242   20:20   0.00   80.7    26   16.5   315    22.7   867.9    0.00 
 242   20:30   0.00   80.6    26   16.5   319    23.2   868.1    0.00 
 242   20:40   0.00   80.3    26   14.9   312    24.3   868.1    0.00 
 242   20:50   0.00   80.0    27   16.2   314    22.9   868.0    0.00 
 242   21:00   0.00   79.9    27   14.7   315    20.5   867.9    0.00 
 242   21:10   0.00   79.8    27   14.9   315    21.5   867.9    0.00 
 242   21:20   0.00   79.4    28   14.9   313    20.7   867.9    0.00 
 242   21:30   0.00   79.2    28   14.2   312    24.9   868.0    0.00 
 242   21:40   0.00   79.1    29   14.3   314    20.8   868.0    0.00 
 242   21:50   0.00   78.9    29   13.8   313    21.4   867.9    0.00 
 242   22:00   0.00   78.3    30   14.8   312    22.0   867.9    0.00 
 242   22:10   0.00   78.1    30   13.6   316    22.0   867.9    0.00 
 242   22:20   0.00   77.5    31   14.7   308    19.8   867.9    0.00 
 242   22:30   0.00   77.0    32   15.6   315    24.8   867.9    0.00 
 242   22:40   0.00   76.5    32   16.7   314    22.7   867.9    0.00 
 242   22:50   0.00   76.1    33   16.3   310    25.3   867.9    0.00 
 242   23:00   0.00   76.0    33   15.2   309    20.5   868.0    0.00 
 242   23:10   0.00   76.4    33   14.0   316    21.6   868.0    0.00 
 242   23:20   0.00   76.6    32   11.9   315    20.8   868.0    0.00 
 242   23:30   0.00   76.5    33   13.6   312    21.8   868.1    0.00 
 242   23:40   0.00   76.5    32   12.7   316    19.2   868.1    0.00 
 242   23:50   0.00   76.6    32   12.6   314    17.3   868.1    0.00 
 243    0:00   0.00   77.1    30    8.5   325    15.1   868.0    0.00 
 243    0:10   0.00   77.4    29    9.6   328    16.6   868.0    0.00 
 243    0:20   0.00   77.3    30    9.4   317    14.5   868.1    0.00 
 243    0:30   0.00   76.4    31   11.4   310    16.8   868.1    0.00 
 243    0:40   0.00   76.7    30    8.9   312    12.2   868.1    0.00 
 243    0:50   0.00   76.3    30    8.8   307    12.2   868.1    0.00 
 243    1:00   0.00   76.3    30    8.8   303    12.0   868.0    0.00 
 243    1:10   0.00   76.2    30    8.8   312    13.2   868.0    0.00 
 243    1:20   0.00   76.5    29    7.2   311    10.3   868.0    0.00 
 243    1:30   0.00   76.1    30    7.2   308    10.8   868.0    0.00 
 243    1:40   0.00   75.8    30    5.7   289     8.2   868.0    0.00 
 243    1:50   0.00   75.6    31    6.5   272     9.1   868.0    0.00 
 243    2:00   0.00   75.6    31    5.4   273     7.8   868.0    0.00 
 243    2:10   0.00   75.8    30    5.9   284     8.2   868.0    0.00 
 243    2:20   0.00   75.0    32    6.8   288     9.1   868.0    0.00 
 243    2:30   0.00   75.0    32    7.8   267    10.7   868.0    0.00 
 243    2:40   0.00   75.1    32    8.3   258    11.7   868.0    0.00 
 243    2:50   0.00   74.4    34    8.1   281    12.6   868.0    0.00 
 243    3:00   0.00   73.7    35    7.0   276     9.1   868.0    0.00 
 243    3:10   0.00   73.8    35    7.8   260    10.2   868.1    0.00 
 243    3:20   0.00   74.0    34    6.4   245     8.9   868.2    0.00 
 243    3:30   0.00   73.7    35    6.8   260     9.1   868.3    0.00 
 243    3:40   0.00   72.9    36    7.7   273     9.3   868.3    0.00 
 243    3:50   0.00   73.1    36    6.8   272     8.3   868.4    0.00 
 243    4:00   0.00   73.1    35    7.7   274     8.8   868.4    0.00 
 243    4:10   0.00   73.2    35    6.8   269     8.0   868.5    0.00 
 243    4:20   0.00   73.1    35    4.9   272     6.0   868.5    0.00 
 243    4:30   0.00   72.6    35    5.1   274     6.3   868.4    0.00 
 243    4:40   0.00   72.8    35    6.0   273     7.0   868.5    0.00 
 243    4:50   0.00   73.0    34    6.8   271     8.5   868.6    0.00 
 243    5:00   0.00   73.1    33    7.0   270     8.7   868.7    0.00 
 243    5:10   0.00   72.8    33    5.6   272     7.9   868.7    0.00 
 243    5:20   0.00   73.4    32    5.6   271     7.6   868.8    0.00 
 243    5:30   0.00   73.3    32    6.0   274     7.5   868.8    0.00 
 243    5:40   0.00   72.8    33    5.8   272     8.4   869.0    0.00 
 243    5:50   0.01   73.4    33    7.1   269     8.6   869.0    0.00 
 243    6:00   0.03   73.8    32    6.6   266     7.7   869.1    0.00 

Return to Sweeney Granite Mountains graphs page.


Western Regional Climate Center,wrcc@dri.edu